Time;durP1;ratioP1;P1;durP2;ratioP2;P2;SDS_P1;SDS_P2;PMS_P1;PMS_P2;Temp;Humidity;BMP_temperature;BMP_pressure;BME280_temperature;BME280_humidity;BME280_pressure;Samples;Min_cycle;Max_cycle;Signal;HPM_P1;HPM_P2
2022/02/16 00:00:22;;;;;;;64.80;36.53;;;;;;;4.06;84.61;100336.92;1670571;84;26527;-79
2022/02/16 00:02:50;;;;;;;75.25;36.38;;;;;;;4.06;84.60;100327.17;1675098;84;26294;-79
2022/02/16 00:05:18;;;;;;;75.15;38.08;;;;;;;4.05;84.55;100322.00;1675427;84;27512;-79
2022/02/16 00:07:47;;;;;;;65.55;35.75;;;;;;;4.08;84.65;100320.38;1676869;84;26490;-80
2022/02/16 00:10:14;;;;;;;62.95;34.10;;;;;;;4.09;84.64;100315.41;1683407;84;25830;-79
2022/02/16 00:12:42;;;;;;;65.92;36.30;;;;;;;4.09;84.51;100316.73;1673832;84;25939;-79
2022/02/16 00:15:13;;;;;;;69.85;37.35;;;;;;;4.07;84.40;100314.73;1672127;84;25964;-79
2022/02/16 00:17:39;;;;;;;68.75;34.98;;;;;;;4.05;84.43;100316.21;1681244;84;28571;-79
2022/02/16 00:20:08;;;;;;;64.35;35.63;;;;;;;4.05;84.49;100317.53;1676504;84;25903;-80
2022/02/16 00:22:34;;;;;;;71.85;38.00;;;;;;;4.04;84.49;100311.91;1676722;84;25794;-79
2022/02/16 00:25:01;;;;;;;70.05;37.13;;;;;;;4.05;84.54;100312.72;1677345;84;25782;-80
2022/02/16 00:27:27;;;;;;;69.80;37.67;;;;;;;4.08;84.48;100313.75;1669640;84;25746;-80
2022/02/16 00:29:54;;;;;;;74.42;39.67;;;;;;;4.08;84.48;100313.27;1669347;84;27459;-79
2022/02/16 00:32:21;;;;;;;78.33;40.43;;;;;;;4.08;84.50;100303.99;1670900;84;26474;-79
2022/02/16 00:34:47;;;;;;;74.85;39.08;;;;;;;4.08;84.46;100303.99;1672499;84;26235;-79
2022/02/16 00:37:13;;;;;;;84.37;40.92;;;;;;;4.06;84.31;100305.97;1669897;84;25752;-79
2022/02/16 00:39:42;;;;;;;92.08;42.35;;;;;;;4.06;84.38;100299.34;1671684;84;25315;-80
2022/02/16 00:42:08;;;;;;;83.12;39.58;;;;;;;4.07;84.40;100299.66;1678151;83;27446;-79
2022/02/16 00:44:34;;;;;;;94.58;42.10;;;;;;;4.07;84.41;100298.34;1671293;84;26078;-79
2022/02/16 00:47:01;;;;;;;78.37;38.60;;;;;;;4.06;84.37;100300.66;1671239;84;25833;-79
2022/02/16 00:49:29;;;;;;;70.85;38.25;;;;;;;4.06;84.42;100296.69;1681240;84;25799;-79
2022/02/16 00:51:55;;;;;;;70.52;37.15;;;;;;;4.05;84.39;100284.41;1676369;84;25829;-80
2022/02/16 00:54:23;;;;;;;77.32;38.40;;;;;;;4.06;84.41;100280.79;1675697;84;27542;-79
2022/02/16 00:56:49;;;;;;;91.97;42.15;;;;;;;4.00;83.96;100266.80;1676340;84;25803;-79
2022/02/16 00:59:17;;;;;;;93.62;42.88;;;;;;;3.96;83.87;100268.61;1672713;84;25787;-79
2022/02/16 01:01:44;;;;;;;84.07;42.43;;;;;;;3.93;83.91;100265.77;1672137;84;25983;-79
2022/02/16 01:04:11;;;;;;;84.40;41.23;;;;;;;3.90;84.07;100265.57;1672213;84;26577;-79
2022/02/16 01:06:37;;;;;;;72.45;38.50;;;;;;;3.90;84.13;100266.06;1676630;84;27464;-78
2022/02/16 01:09:04;;;;;;;69.32;37.30;;;;;;;3.89;84.10;100268.38;1672193;84;25361;-80
2022/02/16 01:11:31;;;;;;;71.05;38.05;;;;;;;3.88;84.08;100266.70;1670204;84;26628;-79
2022/02/16 01:13:59;;;;;;;76.00;37.70;;;;;;;3.85;84.08;100257.23;1674676;84;26009;-79
2022/02/16 01:16:25;;;;;;;68.10;37.78;;;;;;;3.85;83.98;100255.07;1672718;84;26000;-80
2022/02/16 01:18:53;;;;;;;69.87;39.03;;;;;;;3.82;83.99;100250.94;1672440;84;28339;-79
2022/02/16 01:21:20;;;;;;;66.42;36.05;;;;;;;3.81;83.88;100245.77;1672144;84;25815;-79
2022/02/16 01:23:47;;;;;;;62.08;35.80;;;;;;;3.77;83.88;100247.90;1661449;84;26008;-79
2022/02/16 01:26:17;;;;;;;67.92;35.52;;;;;;;3.74;83.92;100238.11;1678921;84;25988;-79
2022/02/16 01:28:46;;;;;;;66.77;35.73;;;;;;;3.73;83.82;100243.05;1678460;84;25870;-80
2022/02/16 01:31:14;;;;;;;68.47;36.83;;;;;;;3.68;83.80;100234.23;1678255;84;28391;-79
2022/02/16 01:33:42;;;;;;;65.45;36.83;;;;;;;3.63;83.73;100229.06;1667216;84;26151;-79
2022/02/16 01:36:08;;;;;;;72.17;37.33;;;;;;;3.60;83.88;100224.89;1671546;84;26579;-79
2022/02/16 01:38:35;;;;;;;72.32;39.13;;;;;;;3.60;83.90;100218.76;1671211;84;26551;-79
2022/02/16 01:41:15;;;;;;;70.15;35.80;;;;;;;3.58;83.92;100224.22;1671280;84;25985;-79
2022/02/16 01:43:48;;;;;;;74.03;37.00;;;;;;;3.57;83.98;100222.53;1674868;84;27676;-79
2022/02/16 01:46:16;;;;;;;68.62;36.93;;;;;;;3.55;83.94;100223.18;1675517;84;25839;-80
2022/02/16 01:48:43;;;;;;;61.85;34.95;;;;;;;3.53;83.86;100225.15;1675470;84;25318;-80
2022/02/16 01:51:11;;;;;;;67.22;36.60;;;;;;;3.51;83.67;100219.66;1672968;84;25822;-79
2022/02/16 01:53:39;;;;;;;64.60;34.88;;;;;;;3.49;83.64;100216.33;1672283;84;26025;-78
2022/02/16 01:56:06;;;;;;;68.35;36.93;;;;;;;3.46;83.54;100216.17;1652598;84;27499;-79
2022/02/16 01:58:35;;;;;;;62.73;35.60;;;;;;;3.42;83.50;100214.77;1672537;84;25770;-80
2022/02/16 02:01:13;;;;;;;66.60;34.73;;;;;;;3.39;83.35;100216.42;1674181;83;26033;-79
2022/02/16 02:03:41;;;;;;;67.40;34.98;;;;;;;3.31;83.32;100211.53;1675316;84;26642;-79
2022/02/16 02:06:09;;;;;;;70.30;34.35;;;;;;;3.28;83.46;100207.84;1673325;84;26200;-79
2022/02/16 02:08:35;;;;;;;63.95;34.88;;;;;;;3.27;83.74;100192.48;1676196;84;27453;-80
2022/02/16 02:11:02;;;;;;;64.12;32.50;;;;;;;3.27;83.84;100187.67;1663325;84;25883;-79
2022/02/16 02:13:29;;;;;;;60.20;33.60;;;;;;;3.26;83.99;100184.19;1667574;84;25802;-79
2022/02/16 02:16:00;;;;;;;58.35;34.00;;;;;;;3.25;84.10;100181.18;1670422;84;26683;-78
2022/02/16 02:18:28;;;;;;;65.80;33.90;;;;;;;3.25;84.20;100176.41;1667498;84;26258;-79
2022/02/16 02:20:55;;;;;;;55.50;32.80;;;;;;;3.24;84.17;100182.18;1671327;84;27475;-79
2022/02/16 02:23:21;;;;;;;61.28;33.30;;;;;;;3.24;84.25;100181.34;1679134;84;25771;-79
2022/02/16 02:25:52;;;;;;;70.83;34.85;;;;;;;3.24;84.28;100177.38;1678762;84;26595;-79
2022/02/16 02:28:23;;;;;;;62.00;31.65;;;;;;;3.22;84.26;100172.23;1674229;84;25777;-79
2022/02/16 02:30:49;;;;;;;60.93;32.83;;;;;;;3.16;84.35;100168.88;1678660;83;25787;-79
2022/02/16 02:33:17;;;;;;;55.52;30.75;;;;;;;3.13;84.61;100170.00;1682659;84;27484;-79
2022/02/16 02:35:44;;;;;;;56.92;31.90;;;;;;;3.10;84.81;100167.64;1677409;84;26086;-79
2022/02/16 02:38:10;;;;;;;56.90;30.75;;;;;;;3.09;85.04;100165.98;1677674;84;25746;-79
2022/02/16 02:40:36;;;;;;;57.73;31.87;;;;;;;3.11;85.14;100171.12;1680932;84;27118;-80
2022/02/16 02:43:06;;;;;;;60.88;31.33;;;;;;;3.13;85.17;100163.38;1668501;84;25848;-79
2022/02/16 02:45:34;;;;;;;60.95;31.57;;;;;;;3.12;84.92;100156.41;1678956;84;27479;-80
2022/02/16 02:48:02;;;;;;;58.05;31.20;;;;;;;3.12;85.09;100156.92;1680570;84;25809;-79
2022/02/16 02:50:29;;;;;;;57.40;31.82;;;;;;;3.13;85.20;100162.55;1672292;84;26502;-80
2022/02/16 02:52:55;;;;;;;60.43;32.63;;;;;;;3.09;85.03;100162.02;1655432;84;26571;-79
2022/02/16 02:55:22;;;;;;;57.30;32.40;;;;;;;3.05;84.91;100165.95;1642217;84;25844;-79
2022/02/16 02:57:48;;;;;;;61.33;30.65;;;;;;;3.04;85.18;100161.63;1679763;84;28310;-78
2022/02/16 03:00:15;;;;;;;57.17;30.40;;;;;;;2.99;85.11;100162.55;1675417;84;25755;-80
2022/02/16 03:02:43;;;;;;;56.50;30.52;;;;;;;2.92;85.16;100164.64;1673198;84;25809;-79
2022/02/16 03:05:11;;;;;;;64.32;33.23;;;;;;;2.91;85.61;100159.83;1667619;84;26394;-79
2022/02/16 03:07:39;;;;;;;64.37;31.82;;;;;;;2.91;85.79;100156.34;1675913;84;25836;-80
2022/02/16 03:10:08;;;;;;;62.73;33.88;;;;;;;2.90;85.97;100150.24;1673389;84;27476;-79
2022/02/16 03:12:34;;;;;;;65.00;33.40;;;;;;;2.93;86.08;100142.51;1676818;84;26018;-79
2022/02/16 03:15:01;;;;;;;59.53;33.33;;;;;;;2.96;86.08;100133.77;1681177;84;26479;-79
2022/02/16 03:17:29;;;;;;;67.32;36.13;;;;;;;2.98;86.01;100133.13;1667791;84;26546;-79
2022/02/16 03:19:56;;;;;;;65.20;34.55;;;;;;;2.99;86.09;100128.67;1676824;84;25605;-79
2022/02/16 03:22:23;;;;;;;66.15;35.48;;;;;;;2.99;86.24;100129.48;1676526;84;27513;-79
2022/02/16 03:24:49;;;;;;;69.87;37.30;;;;;;;3.00;86.38;100123.23;1672274;84;25750;-79
2022/02/16 03:27:16;;;;;;;65.05;37.42;;;;;;;2.98;86.36;100119.91;1676270;84;26616;-80
2022/02/16 03:29:47;;;;;;;63.65;35.88;;;;;;;2.97;86.39;100125.35;1667681;84;25804;-79
2022/02/16 03:32:13;;;;;;;70.87;38.35;;;;;;;2.95;86.52;100125.48;1624755;86;25843;-79
2022/02/16 03:34:40;;;;;;;73.07;37.90;;;;;;;2.95;86.67;100129.45;1666451;85;28244;-80
2022/02/16 03:37:06;;;;;;;68.33;37.98;;;;;;;2.94;86.64;100138.38;1658933;84;25784;-79
2022/02/16 03:39:33;;;;;;;73.52;39.45;;;;;;;2.96;86.66;100142.19;1660269;84;25346;-79
2022/02/16 03:42:00;;;;;;;74.00;39.05;;;;;;;2.95;86.35;100143.19;1661728;85;26579;-79
2022/02/16 03:44:27;;;;;;;74.30;37.88;;;;;;;2.94;86.33;100140.19;1657970;85;25745;-79
2022/02/16 03:46:55;;;;;;;63.65;36.58;;;;;;;2.94;86.33;100141.51;1657992;85;27461;-79
2022/02/16 03:49:24;;;;;;;66.25;36.45;;;;;;;2.92;86.14;100143.47;1665345;85;26424;-79
2022/02/16 03:51:51;;;;;;;66.17;37.20;;;;;;;2.90;86.33;100140.98;1644163;85;25873;-79
2022/02/16 03:54:17;;;;;;;69.72;38.42;;;;;;;2.88;86.30;100127.56;1663293;85;26585;-79
2022/02/16 03:56:45;;;;;;;71.17;37.75;;;;;;;2.87;86.45;100124.56;1660268;85;25834;-79
2022/02/16 03:59:12;;;;;;;70.75;40.15;;;;;;;2.85;86.40;100122.56;1657238;85;27645;-79
2022/02/16 04:01:40;;;;;;;70.37;38.67;;;;;;;2.85;86.54;100132.66;1664235;85;25843;-80
2022/02/16 04:04:06;;;;;;;73.28;38.83;;;;;;;2.84;86.63;100131.01;1665675;84;25399;-79
2022/02/16 04:06:32;;;;;;;63.75;36.65;;;;;;;2.82;86.70;100135.58;1669468;85;26576;-79
2022/02/16 04:08:59;;;;;;;71.02;39.15;;;;;;;2.79;86.75;100121.84;1665768;85;26415;-80
2022/02/16 04:11:27;;;;;;;67.62;38.08;;;;;;;2.76;86.88;100122.16;1640244;85;27549;-79
2022/02/16 04:13:55;;;;;;;76.25;40.73;;;;;;;2.75;87.14;100123.12;1658572;84;25930;-79
2022/02/16 04:16:23;;;;;;;67.25;38.35;;;;;;;2.74;87.17;100114.83;1661789;85;26479;-79
2022/02/16 04:18:50;;;;;;;71.92;40.63;;;;;;;2.75;87.35;100109.41;1658021;85;26521;-79
2022/02/16 04:21:17;;;;;;;71.80;39.53;;;;;;;2.74;87.34;100104.25;1665593;85;25911;-79
2022/02/16 04:23:45;;;;;;;70.32;38.38;;;;;;;2.74;87.45;100093.19;1664909;85;27505;-80
2022/02/16 04:26:12;;;;;;;72.05;41.13;;;;;;;2.72;87.46;100091.19;1642341;85;26217;-79
2022/02/16 04:28:39;;;;;;;83.40;41.25;;;;;;;2.72;87.56;100091.19;1665630;84;26486;-79
2022/02/16 04:31:07;;;;;;;75.05;39.45;;;;;;;2.71;87.58;100089.54;1662476;85;26131;-79
2022/02/16 04:33:33;;;;;;;69.75;40.60;;;;;;;2.69;87.58;100086.22;1676558;83;25882;-79
2022/02/16 04:36:00;;;;;;;77.40;40.05;;;;;;;2.69;87.63;100078.77;1678889;84;28513;-79
2022/02/16 04:38:28;;;;;;;68.97;39.95;;;;;;;2.71;87.69;100085.58;1672261;84;26454;-79
2022/02/16 04:40:54;;;;;;;74.58;40.85;;;;;;;2.70;87.61;100078.60;1676798;84;25524;-79
2022/02/16 04:43:21;;;;;;;75.67;41.10;;;;;;;2.70;87.60;100078.60;1674119;84;25875;-79
2022/02/16 04:45:47;;;;;;;69.92;39.88;;;;;;;2.72;87.77;100079.28;1678279;84;26553;-80
2022/02/16 04:48:15;;;;;;;78.22;43.10;;;;;;;2.72;87.57;100079.77;1672552;84;27526;-79
2022/02/16 04:50:43;;;;;;;71.02;40.45;;;;;;;2.71;87.57;100076.31;1676608;84;25919;-79
2022/02/16 04:53:10;;;;;;;66.97;39.03;;;;;;;2.70;87.63;100064.06;1673306;84;25889;-78
2022/02/16 04:55:37;;;;;;;73.70;40.63;;;;;;;2.68;87.74;100064.70;1673150;84;25793;-79
2022/02/16 04:58:08;;;;;;;70.67;39.53;;;;;;;2.66;87.81;100057.89;1672529;84;25956;-79
2022/02/16 05:00:35;;;;;;;76.10;40.25;;;;;;;2.67;87.93;100062.22;1677152;84;27461;-80
2022/02/16 05:03:05;;;;;;;;;;;;;;;2.66;87.97;100056.58;1677102;84;25808;-78
2022/02/16 05:05:32;;;;;;;52.23;29.25;;;;;;;2.63;88.12;100056.38;1674299;84;26669;-79
2022/02/16 05:07:59;;;;;;;75.52;39.30;;;;;;;2.61;88.41;100060.98;1680482;84;25772;-79
2022/02/16 05:10:25;;;;;;;71.30;40.78;;;;;;;2.62;88.56;100051.25;1673461;84;25989;-79
2022/02/16 05:12:52;;;;;;;73.37;40.35;;;;;;;2.62;88.69;100049.44;1676006;84;27537;-79
2022/02/16 05:15:20;;;;;;;68.15;35.33;;;;;;;2.64;88.93;100046.16;1676948;84;25804;-80
2022/02/16 05:17:46;;;;;;;75.05;39.20;;;;;;;2.68;89.25;100044.03;1677896;84;25861;-79
2022/02/16 05:20:14;;;;;;;69.97;36.35;;;;;;;2.69;89.17;100039.10;1678445;84;25829;-80
2022/02/16 05:22:41;;;;;;;69.80;37.60;;;;;;;2.71;89.22;100040.62;1679260;83;25947;-79
2022/02/16 05:25:08;;;;;;;74.32;40.38;;;;;;;2.73;89.30;100039.14;1675219;83;28338;-79
2022/02/16 05:27:34;;;;;;;68.12;37.53;;;;;;;2.73;89.26;100030.72;1678965;84;26456;-80
2022/02/16 05:30:02;;;;;;;66.17;36.68;;;;;;;2.75;89.37;100030.08;1679484;84;26431;-79
2022/02/16 05:32:28;;;;;;;73.35;38.48;;;;;;;2.78;89.41;100028.44;1656293;84;26653;-80
2022/02/16 05:34:55;;;;;;;76.57;38.25;;;;;;;2.81;89.37;100025.98;1669055;84;26501;-79
2022/02/16 05:37:21;;;;;;;68.78;38.35;;;;;;;2.82;89.25;100021.05;1673203;84;28277;-79
2022/02/16 05:39:47;;;;;;;67.22;38.25;;;;;;;2.84;89.34;100021.73;1672797;84;26662;-79
2022/02/16 05:42:13;;;;;;;68.60;37.60;;;;;;;2.86;89.33;100018.44;1664297;83;25881;-81
2022/02/16 05:44:42;;;;;;;67.90;38.38;;;;;;;2.87;89.30;100014.80;1681468;83;27127;-78
2022/02/16 05:47:08;;;;;;;67.75;35.88;;;;;;;2.88;89.26;100021.28;1677089;83;26427;-80
2022/02/16 05:49:34;;;;;;;62.83;35.30;;;;;;;2.88;89.31;100014.66;1646435;84;27636;-82
2022/02/16 05:52:01;;;;;;;64.65;38.30;;;;;;;2.90;89.25;100016.66;1677112;84;26564;-78
2022/02/16 05:54:27;;;;;;;67.87;37.28;;;;;;;2.90;89.25;100014.50;1682469;83;26494;-78
2022/02/16 05:56:53;;;;;;;64.87;36.15;;;;;;;2.91;89.12;100010.37;1674262;83;26203;-78
2022/02/16 05:59:20;;;;;;;66.53;37.93;;;;;;;2.91;89.01;100014.83;1669613;84;25770;-78
2022/02/16 06:01:48;;;;;;;71.55;37.80;;;;;;;2.90;89.02;100014.50;1674103;84;27468;-78
2022/02/16 06:04:16;;;;;;;69.27;36.95;;;;;;;2.90;89.15;100014.02;1673561;84;26257;-78
2022/02/16 06:06:44;;;;;;;71.17;36.13;;;;;;;2.90;89.09;100010.05;1557528;84;10000877;-78
2022/02/16 06:09:10;;;;;;;71.50;35.88;;;;;;;2.91;89.06;100010.37;1676981;84;25317;-77
2022/02/16 06:11:36;;;;;;;67.78;37.28;;;;;;;2.91;89.15;100011.70;1673093;84;27460;-79
2022/02/16 06:14:07;;;;;;;63.20;36.80;;;;;;;2.92;89.20;100006.77;1673139;84;25813;-78
2022/02/16 06:16:34;;;;;;;64.07;36.55;;;;;;;2.93;89.36;100007.59;1674416;83;25870;-77
2022/02/16 06:19:00;;;;;;;65.65;36.28;;;;;;;2.93;89.30;100007.08;1676053;84;26313;-77
2022/02/16 06:21:26;;;;;;;68.37;37.03;;;;;;;2.95;89.34;100001.66;1672598;84;25765;-77
2022/02/16 06:23:53;;;;;;;69.35;37.70;;;;;;;2.96;89.32;100000.66;1678672;84;27724;-78
2022/02/16 06:26:19;;;;;;;64.87;36.70;;;;;;;2.97;89.28;99997.86;1672638;84;25908;-78
2022/02/16 06:28:46;;;;;;;71.07;36.17;;;;;;;2.99;89.23;99997.20;1678972;84;26615;-78
2022/02/16 06:31:14;;;;;;;69.58;39.05;;;;;;;3.00;89.24;99986.14;1685806;84;25793;-78
2022/02/16 06:33:40;;;;;;;67.65;38.15;;;;;;;3.01;89.27;99988.66;1679271;84;25918;-78
2022/02/16 06:36:08;;;;;;;69.82;36.53;;;;;;;3.02;89.24;99985.49;1672044;84;27493;-78
2022/02/16 06:38:34;;;;;;;72.97;39.70;;;;;;;3.02;89.49;99989.46;1662047;84;25688;-77
2022/02/16 06:41:04;;;;;;;73.42;38.20;;;;;;;3.04;89.45;99980.39;1676669;84;25870;-78
2022/02/16 06:43:31;;;;;;;73.78;38.40;;;;;;;3.08;89.59;99983.55;1673157;84;25835;-78
2022/02/16 06:45:59;;;;;;;69.22;36.83;;;;;;;3.11;89.67;99975.31;1674859;83;25787;-78
2022/02/16 06:48:26;;;;;;;72.08;38.40;;;;;;;3.14;89.73;99965.24;1677184;84;27475;-78
2022/02/16 06:50:53;;;;;;;71.87;37.88;;;;;;;3.20;89.82;99966.95;1658976;84;25805;-78
2022/02/16 06:53:20;;;;;;;70.37;36.15;;;;;;;3.24;89.86;99967.81;1676575;84;25945;-78
2022/02/16 06:55:48;;;;;;;74.80;39.95;;;;;;;3.28;90.00;99963.02;1674495;84;26598;-78
2022/02/16 06:58:16;;;;;;;70.60;38.50;;;;;;;3.33;90.04;99956.78;1676942;84;26477;-78
2022/02/16 07:00:43;;;;;;;72.47;38.73;;;;;;;3.38;90.05;99945.23;1672933;84;27722;-78
2022/02/16 07:03:09;;;;;;;70.95;38.05;;;;;;;3.42;89.97;99953.20;1645195;86;25229;-78
2022/02/16 07:05:39;;;;;;;64.90;37.33;;;;;;;3.46;89.95;99942.14;1671948;84;25836;-78
2022/02/16 07:08:08;;;;;;;69.67;37.03;;;;;;;3.52;89.98;99952.10;1676023;84;26564;-78
2022/02/16 07:10:34;;;;;;;66.35;39.30;;;;;;;3.57;90.06;99953.77;1677346;84;26432;-78
2022/02/16 07:13:00;;;;;;;78.25;40.50;;;;;;;3.63;90.01;99939.91;1673915;84;28344;-78
2022/02/16 07:15:29;;;;;;;73.45;39.90;;;;;;;3.71;90.00;99941.75;1672767;84;25833;-78
2022/02/16 07:17:56;;;;;;;66.07;37.23;;;;;;;3.77;89.89;99941.95;1680207;84;25645;-78
2022/02/16 07:20:23;;;;;;;74.32;39.45;;;;;;;3.83;89.93;99933.36;1671975;84;25884;-77
2022/02/16 07:22:49;;;;;;;70.22;37.98;;;;;;;3.91;89.87;99930.73;1676200;84;25889;-78
2022/02/16 07:25:17;;;;;;;69.47;37.75;;;;;;;3.98;89.87;99927.47;1674471;83;27542;-77
2022/02/16 07:27:44;;;;;;;78.97;42.13;;;;;;;4.04;89.80;99935.60;1675227;84;25787;-77
2022/02/16 07:30:13;;;;;;;69.55;41.00;;;;;;;4.10;89.68;99938.93;1675678;84;25997;-78
2022/02/16 07:32:42;;;;;;;72.65;40.12;;;;;;;4.16;89.60;99929.48;1673117;84;26535;-78
2022/02/16 07:35:12;;;;;;;76.82;42.03;;;;;;;4.21;89.41;99925.37;1674983;84;25286;-78
2022/02/16 07:37:39;;;;;;;79.00;42.80;;;;;;;4.26;89.27;99926.19;1662091;84;27473;-79
2022/02/16 07:40:07;;;;;;;76.37;43.00;;;;;;;4.31;89.23;99923.89;1676625;84;25912;-78
2022/02/16 07:42:35;;;;;;;74.77;40.35;;;;;;;4.35;89.13;99923.41;1675287;83;25843;-78
2022/02/16 07:45:15;;;;;;;74.67;41.23;;;;;;;4.40;89.00;99923.75;1674046;84;26590;-78
2022/02/16 07:47:42;;;;;;;76.02;40.30;;;;;;;4.45;88.88;99928.53;1680635;84;26240;-78
2022/02/16 07:50:09;;;;;;;76.28;40.67;;;;;;;4.50;88.88;99924.91;1670829;84;27472;-78
2022/02/16 07:52:58;;;;;;;69.95;38.98;;;;;;;4.55;88.73;99930.56;1673739;84;25952;-78
2022/02/16 07:55:28;;;;;;;73.67;38.60;;;;;;;4.60;88.60;99925.57;1673976;84;26026;-77
2022/02/16 07:57:58;;;;;;;69.72;38.73;;;;;;;4.67;88.48;99926.58;1678240;83;25824;-78
2022/02/16 08:00:25;;;;;;;70.35;37.85;;;;;;;4.73;88.35;99932.55;1672757;84;25618;-78
2022/02/16 08:02:53;;;;;;;72.10;39.00;;;;;;;4.80;88.00;99932.71;1675870;84;27469;-78
2022/02/16 08:05:20;;;;;;;74.10;39.15;;;;;;;4.85;87.83;99920.62;1675525;84;25949;-79
2022/02/16 08:07:47;;;;;;;68.47;37.58;;;;;;;4.92;87.50;99931.41;1671011;84;25756;-78
2022/02/16 08:10:13;;;;;;;66.92;35.95;;;;;;;4.99;87.77;99933.70;1674892;84;25841;-78
2022/02/16 08:12:52;;;;;;;68.17;38.48;;;;;;;5.07;87.61;99937.70;1651494;84;26007;-78
2022/02/16 08:15:21;;;;;;;66.70;39.25;;;;;;;5.15;87.54;99932.37;1652816;84;28395;-78
2022/02/16 08:17:47;;;;;;;68.42;38.42;;;;;;;5.21;87.26;99925.05;1655353;84;26572;-78
2022/02/16 08:20:14;;;;;;;66.60;33.02;;;;;;;5.28;86.83;99917.55;1676511;84;26064;-78
2022/02/16 08:22:48;;;;;;;65.80;36.55;;;;;;;5.36;86.38;99916.72;1665543;84;25850;-78
2022/02/16 08:25:15;;;;;;;62.03;35.58;;;;;;;5.41;86.67;99903.74;1675572;84;25763;-78
2022/02/16 08:27:49;;;;;;;61.35;36.17;;;;;;;5.46;86.37;99908.89;1667474;84;27654;-78
2022/02/16 08:30:17;;;;;;;67.05;36.40;;;;;;;5.51;86.29;99904.89;1678072;84;25885;-78
2022/02/16 08:32:46;;;;;;;59.93;31.77;;;;;;;5.54;85.94;99901.91;1653081;84;26179;-78
2022/02/16 08:35:14;;;;;;;63.35;33.73;;;;;;;5.55;85.14;99893.75;1670021;83;25929;-74
2022/02/16 08:37:41;;;;;;;56.90;33.55;;;;;;;5.57;84.98;99887.77;1675663;84;25579;-79
2022/02/16 08:40:08;;;;;;;55.05;29.90;;;;;;;5.58;84.97;99881.44;1670416;84;27526;-79
2022/02/16 08:42:34;;;;;;;49.65;28.12;;;;;;;5.59;84.14;99884.93;1643252;83;92923;-80
2022/02/16 08:45:01;;;;;;;50.35;27.77;;;;;;;5.63;84.00;99875.61;1612728;86;26015;-76
2022/02/16 08:47:27;;;;;;;46.23;26.82;;;;;;;5.68;84.17;99870.62;1610977;88;26514;-77
2022/02/16 08:49:53;;;;;;;40.73;23.55;;;;;;;5.75;83.35;99867.08;1613647;88;25897;-75
2022/02/16 08:52:19;;;;;;;39.92;23.98;;;;;;;5.84;82.48;99863.91;1611242;88;27477;-78
2022/02/16 08:54:46;;;;;;;41.30;23.67;;;;;;;5.93;82.93;99865.53;1608227;88;25855;-77
2022/02/16 08:57:12;;;;;;;40.15;22.02;;;;;;;6.03;81.85;99856.86;1609168;88;25947;-78
2022/02/16 08:59:38;;;;;;;41.02;21.05;;;;;;;6.12;80.38;99849.13;1603994;88;25901;-78
2022/02/16 09:02:05;;;;;;;36.13;20.00;;;;;;;6.21;80.07;99852.90;1606525;88;25800;-78
2022/02/16 09:04:31;;;;;;;36.20;20.90;;;;;;;6.29;79.20;99840.03;1614087;88;28272;-77
2022/02/16 09:09:43;;;;;;;32.42;19.48;;;;;;;6.39;78.67;99841.14;1611533;88;26093;-77
2022/02/16 09:12:10;;;;;;;35.80;20.48;;;;;;;6.41;78.56;99843.11;1612212;88;26639;-78
2022/02/16 09:14:37;;;;;;;32.17;19.57;;;;;;;6.43;78.55;99828.64;1612842;88;25914;-77
2022/02/16 09:17:04;;;;;;;38.40;19.80;;;;;;;6.48;78.05;99827.58;1609688;88;26935;-78
2022/02/16 09:19:34;;;;;;;27.75;15.70;;;;;;;6.54;77.87;99827.38;1611254;88;25838;-78
2022/02/16 09:22:01;;;;;;;37.83;19.70;;;;;;;6.61;76.84;99818.98;1608497;88;25777;-78
2022/02/16 09:24:28;;;;;;;35.17;19.45;;;;;;;6.67;77.38;99818.28;1613436;88;26571;-77
2022/02/16 09:26:54;;;;;;;30.65;18.55;;;;;;;6.71;76.60;99811.09;1612344;88;25849;-78
2022/02/16 09:29:22;;;;;;;29.65;17.62;;;;;;;6.74;77.06;99797.91;1616212;88;28343;-77
2022/02/16 09:31:50;;;;;;;31.10;17.90;;;;;;;6.76;74.69;99797.22;1612778;88;25921;-77
2022/02/16 09:34:19;;;;;;;37.10;19.67;;;;;;;6.77;75.48;99794.89;1611583;88;25759;-76
2022/02/16 09:36:45;;;;;;;32.28;17.12;;;;;;;6.78;75.53;99797.36;1611092;88;26160;-77
2022/02/16 09:39:12;;;;;;;33.78;18.98;;;;;;;6.79;74.81;99791.05;1610390;88;25870;-77
2022/02/16 09:41:39;;;;;;;37.55;19.12;;;;;;;6.82;75.01;99786.67;1630285;82;72116;-77
2022/02/16 09:44:05;;;;;;;33.05;18.57;;;;;;;6.82;75.33;99781.34;1567378;89;25909;-78
2022/02/16 09:46:34;;;;;;;31.77;17.35;;;;;;;6.87;75.29;99780.30;1554788;91;25767;-79
2022/02/16 09:49:01;;;;;;;34.48;18.57;;;;;;;6.93;75.49;99774.73;1565097;89;26629;-78
2022/02/16 09:51:27;;;;;;;32.08;17.70;;;;;;;6.97;75.63;99778.72;1567284;89;25878;-78
2022/02/16 09:53:53;;;;;;;35.13;17.42;;;;;;;7.02;75.77;99777.64;1574061;89;27475;-79
2022/02/16 09:56:19;;;;;;;30.77;17.57;;;;;;;7.08;75.91;99768.11;1566522;88;26622;-77
2022/02/16 09:58:46;;;;;;;24.20;15.63;;;;;;;7.15;75.47;99763.17;1570773;89;26566;-78
2022/02/16 10:01:16;;;;;;;27.52;16.35;;;;;;;7.20;74.90;99760.80;1566808;89;25888;-77
2022/02/16 10:04:02;;;;;;;31.00;16.30;;;;;;;7.24;74.56;99755.91;1570503;89;26523;-77
2022/02/16 10:06:41;;;;;;;26.40;16.80;;;;;;;7.27;74.40;99752.36;1567061;89;27660;-77
2022/02/16 10:09:09;;;;;;;27.50;16.87;;;;;;;7.32;74.24;99739.32;1560831;89;25900;-78
2022/02/16 10:11:41;;;;;;;30.40;17.05;;;;;;;7.38;73.75;99740.40;1546676;89;25394;-79
2022/02/16 10:14:16;;;;;;;28.87;16.35;;;;;;;7.41;74.70;99738.20;1566212;89;26008;-77
2022/02/16 10:16:43;;;;;;;31.85;16.05;;;;;;;7.47;74.30;99732.63;1564800;89;26035;-78
2022/02/16 10:19:09;;;;;;;27.45;16.75;;;;;;;7.53;74.55;99725.20;1569916;89;28141;-77
2022/02/16 10:21:35;;;;;;;27.65;17.60;;;;;;;7.61;74.24;99715.25;1570901;89;26510;-78
2022/02/16 10:24:02;;;;;;;26.48;16.20;;;;;;;7.67;74.39;99713.19;1568662;89;25837;-78
2022/02/16 10:26:51;;;;;;;31.05;17.17;;;;;;;7.72;74.30;99700.59;1559630;91;26530;-79
2022/02/16 10:29:20;;;;;;;26.10;14.73;;;;;;;7.72;74.31;99696.09;1556687;91;26750;-78
2022/02/16 10:31:47;;;;;;;28.75;15.65;;;;;;;7.75;73.35;99686.40;1565890;89;27490;-81
2022/02/16 10:34:14;;;;;;;24.77;14.40;;;;;;;7.81;73.24;99684.80;1568341;89;25954;-78
2022/02/16 10:36:40;;;;;;;26.90;14.80;;;;;;;7.87;73.07;99669.89;1580120;90;25832;-77
2022/02/16 10:39:12;;;;;;;25.45;14.20;;;;;;;7.95;73.22;99664.42;1575619;89;25832;-77
2022/02/16 10:41:54;;;;;;;24.43;14.43;;;;;;;8.00;71.95;99655.34;1574963;90;26687;-77
2022/02/16 10:44:24;;;;;;;27.85;13.80;;;;;;;8.02;71.92;99654.64;1576618;89;27507;-78
2022/02/16 10:47:06;;;;;;;25.45;15.00;;;;;;;8.04;72.02;99651.27;1574182;90;25999;-78
2022/02/16 10:49:36;;;;;;;21.40;13.45;;;;;;;8.09;72.24;99642.16;1576502;89;25771;-77
2022/02/16 10:52:18;;;;;;;24.75;14.55;;;;;;;8.18;71.64;99623.16;1574488;89;25808;-77
2022/02/16 10:54:59;;;;;;;23.25;13.53;;;;;;;8.24;71.71;99623.71;1574335;88;25645;-78
2022/02/16 10:57:26;;;;;;;23.42;13.70;;;;;;;8.29;71.67;99616.48;1573987;90;28321;-78
2022/02/16 10:59:54;;;;;;;26.62;14.35;;;;;;;8.32;71.02;99610.23;1574327;90;26617;-77
2022/02/16 11:02:25;;;;;;;20.97;12.65;;;;;;;8.36;71.10;99607.48;1575241;90;26044;-78
2022/02/16 11:04:53;;;;;;;21.73;12.47;;;;;;;8.42;70.53;99602.73;1578861;89;26601;-79
2022/02/16 11:07:23;;;;;;;20.82;12.18;;;;;;;8.47;71.10;99604.77;1577856;90;25617;-78
2022/02/16 11:09:53;;;;;;;21.48;12.15;;;;;;;8.49;70.27;99586.22;1577022;89;27546;-77
2022/02/16 11:12:19;;;;;;;24.43;13.03;;;;;;;8.53;70.81;99591.47;1590864;88;25926;-77
2022/02/16 11:14:46;;;;;;;25.75;12.15;;;;;;;8.55;70.43;99585.42;1580991;90;26037;-79
2022/02/16 11:17:13;;;;;;;22.65;11.50;;;;;;;8.62;70.31;99574.77;1577566;90;26051;-80
2022/02/16 11:19:39;;;;;;;24.72;11.22;;;;;;;8.70;71.04;99571.95;1576684;88;25980;-77
2022/02/16 11:22:14;;;;;;;17.90;10.90;;;;;;;8.78;69.75;99564.27;1574188;90;27480;-77
2022/02/16 11:24:47;;;;;;;14.90;9.33;;;;;;;8.81;70.30;99564.68;1574590;90;25816;-77
2022/02/16 11:27:33;;;;;;;15.75;9.28;;;;;;;8.87;69.40;99560.41;1577003;90;25860;-78